createdAt,value
2023-12-16T00:01:45.266Z,18.47
2023-12-16T00:04:13.511Z,18.37
2023-12-16T00:06:41.445Z,18.60
2023-12-16T00:09:10.794Z,18.20
2023-12-16T00:11:38.832Z,18.23
2023-12-16T00:14:07.014Z,18.80
2023-12-16T00:16:34.997Z,18.87
2023-12-16T00:19:02.967Z,19.13
2023-12-16T00:21:30.918Z,18.93
2023-12-16T00:23:58.841Z,18.83
2023-12-16T00:26:28.111Z,19.47
2023-12-16T00:28:56.000Z,18.73
2023-12-16T00:31:23.959Z,19.17
2023-12-16T00:33:52.031Z,18.80
2023-12-16T00:36:19.987Z,19.00
2023-12-16T00:38:47.893Z,18.70
2023-12-16T00:41:15.851Z,18.57
2023-12-16T00:43:45.112Z,18.70
2023-12-16T00:46:13.062Z,18.73
2023-12-16T00:48:41.450Z,19.30
2023-12-16T00:51:09.424Z,18.63
2023-12-16T00:53:37.560Z,19.03
2023-12-16T00:56:06.888Z,19.10
2023-12-16T00:58:34.823Z,19.60
2023-12-16T01:01:04.227Z,19.97
2023-12-16T01:03:32.276Z,19.87
2023-12-16T01:06:00.216Z,20.10
2023-12-16T01:08:28.139Z,19.60
2023-12-16T01:10:56.072Z,20.33
2023-12-16T01:13:24.040Z,19.93
2023-12-16T01:15:52.416Z,20.00
2023-12-16T01:18:21.814Z,19.97
2023-12-16T01:20:49.831Z,20.10
2023-12-16T01:23:17.786Z,20.27
2023-12-16T01:25:45.927Z,20.20
2023-12-16T01:28:14.583Z,20.30
2023-12-16T01:30:42.617Z,20.30
2023-12-16T01:33:10.667Z,20.47
2023-12-16T01:35:40.177Z,20.63
2023-12-16T01:38:08.148Z,21.23
2023-12-16T01:40:36.103Z,21.80
2023-12-16T01:43:06.114Z,22.10
2023-12-16T01:45:34.182Z,21.87
2023-12-16T01:48:04.369Z,22.37
2023-12-16T01:50:32.547Z,21.90
2023-12-16T01:53:02.204Z,22.47
2023-12-16T01:55:30.513Z,22.03
2023-12-16T01:57:58.808Z,23.23
2023-12-16T02:00:26.756Z,22.57
2023-12-16T02:02:54.877Z,23.50
2023-12-16T02:05:22.830Z,22.90
2023-12-16T02:07:50.807Z,24.27
2023-12-16T02:10:20.501Z,24.70
2023-12-16T02:12:48.511Z,25.07
2023-12-16T02:15:16.498Z,24.90
2023-12-16T02:17:44.497Z,24.90
2023-12-16T02:20:15.196Z,24.33
2023-12-16T02:22:43.150Z,25.20
2023-12-16T02:25:14.090Z,25.07
2023-12-16T02:27:42.725Z,26.33
2023-12-16T02:30:11.261Z,26.37
2023-12-16T02:32:39.491Z,26.63
2023-12-16T02:35:08.501Z,26.53
2023-12-16T02:37:36.753Z,26.47
2023-12-16T02:40:05.484Z,26.43
2023-12-16T02:42:34.816Z,26.93
2023-12-16T02:45:02.711Z,26.67
2023-12-16T02:47:30.695Z,27.47
2023-12-16T02:49:58.677Z,28.53
2023-12-16T02:52:26.830Z,28.37
2023-12-16T02:54:54.828Z,27.67
2023-12-16T02:57:22.798Z,27.43
2023-12-16T02:59:52.268Z,27.80
2023-12-16T03:02:20.219Z,27.73
2023-12-16T03:04:48.168Z,27.73
2023-12-16T03:07:16.137Z,28.67
2023-12-16T03:09:44.125Z,29.70
2023-12-16T03:12:12.113Z,28.90
2023-12-16T03:14:42.377Z,29.73
2023-12-16T03:17:11.742Z,29.83
2023-12-16T03:19:39.733Z,29.67
2023-12-16T03:22:07.795Z,30.03
2023-12-16T03:24:36.002Z,30.30
2023-12-16T03:27:03.969Z,31.17
2023-12-16T03:29:32.441Z,31.57
2023-12-16T03:32:00.479Z,32.23
2023-12-16T03:34:31.572Z,31.77
2023-12-16T03:36:59.606Z,32.53
2023-12-16T03:39:27.543Z,32.77
2023-12-16T03:41:55.501Z,33.17
2023-12-16T03:44:23.584Z,33.30
2023-12-16T03:46:51.508Z,32.33
2023-12-16T03:49:19.868Z,31.33
2023-12-16T03:51:49.242Z,31.87
2023-12-16T03:54:17.269Z,31.77
2023-12-16T03:56:45.232Z,31.00
2023-12-16T03:59:13.159Z,31.27
2023-12-16T04:01:45.908Z,31.07
2023-12-16T04:04:14.080Z,31.27
2023-12-16T04:06:42.089Z,31.90
2023-12-16T04:09:11.369Z,32.53
2023-12-16T04:11:47.056Z,32.20
2023-12-16T04:14:15.028Z,33.17
2023-12-16T04:16:43.006Z,33.40
2023-12-16T04:19:11.713Z,34.50
2023-12-16T04:21:39.734Z,34.80
2023-12-16T04:24:08.469Z,33.97
2023-12-16T04:26:38.633Z,35.20
2023-12-16T04:29:06.592Z,34.47
2023-12-16T04:31:34.532Z,34.07
2023-12-16T04:34:01.732Z,35.70
2023-12-16T04:36:30.489Z,37.37
2023-12-16T04:38:58.659Z,37.40
2023-12-16T04:41:26.629Z,37.13
2023-12-16T04:43:55.937Z,38.03
2023-12-16T04:46:24.347Z,40.53
2023-12-16T04:48:52.531Z,41.07
2023-12-16T04:51:22.305Z,42.37
2023-12-16T04:53:50.294Z,42.43
2023-12-16T04:56:18.274Z,43.43
2023-12-16T04:58:46.379Z,43.07
2023-12-16T05:01:15.687Z,46.03
2023-12-16T05:03:43.757Z,48.17
2023-12-16T05:06:11.806Z,50.10
2023-12-16T05:08:39.814Z,52.93
2023-12-16T05:11:07.903Z,54.50
2023-12-16T05:13:35.811Z,55.43
2023-12-16T05:16:03.816Z,57.17
2023-12-16T05:18:33.139Z,58.53
2023-12-16T05:21:01.110Z,58.57
2023-12-16T05:23:29.047Z,59.37
2023-12-16T05:25:56.971Z,60.57
2023-12-16T05:28:25.000Z,61.73
2023-12-16T05:30:52.998Z,63.07
2023-12-16T05:33:21.029Z,63.67
2023-12-16T05:35:50.491Z,60.80
2023-12-16T05:38:18.489Z,64.00
2023-12-16T05:40:46.401Z,64.40
2023-12-16T05:43:14.415Z,64.57
2023-12-16T05:45:42.418Z,63.17
2023-12-16T05:48:10.428Z,62.80
2023-12-16T05:50:38.615Z,63.77
2023-12-16T05:53:08.268Z,66.17
2023-12-16T05:55:36.259Z,67.87
2023-12-16T05:58:04.375Z,68.20
2023-12-16T06:00:32.414Z,69.50
2023-12-16T06:03:00.665Z,71.50
2023-12-16T06:05:29.115Z,71.47
2023-12-16T06:07:57.160Z,73.60
2023-12-16T06:10:26.856Z,74.50
2023-12-16T06:12:54.828Z,74.40
2023-12-16T06:15:22.775Z,74.00
2023-12-16T06:17:50.889Z,76.37
2023-12-16T06:20:19.088Z,75.73
2023-12-16T06:22:47.332Z,75.77
2023-12-16T06:25:15.464Z,75.83
2023-12-16T06:27:45.312Z,73.73
2023-12-16T06:30:14.840Z,73.50
2023-12-16T06:32:42.810Z,72.80
2023-12-16T06:35:11.172Z,72.83
2023-12-16T06:37:39.361Z,71.90
2023-12-16T06:40:09.290Z,74.07
2023-12-16T06:42:37.343Z,72.87
2023-12-16T06:45:08.122Z,73.63
2023-12-16T06:47:36.929Z,70.97
2023-12-16T06:50:05.495Z,72.73
2023-12-16T06:52:33.485Z,74.80
2023-12-16T06:55:01.510Z,72.67
2023-12-16T06:57:29.835Z,70.70
2023-12-16T06:59:57.750Z,71.47
2023-12-16T07:02:27.735Z,67.20
2023-12-16T07:04:55.868Z,68.00
2023-12-16T07:07:23.850Z,69.63
2023-12-16T07:09:51.898Z,70.30
2023-12-16T07:12:20.024Z,68.17
2023-12-16T07:14:48.569Z,70.57
2023-12-16T07:17:16.599Z,68.90
2023-12-16T07:19:45.927Z,69.67
2023-12-16T07:22:17.826Z,70.27
2023-12-16T07:24:46.353Z,71.07
2023-12-16T07:27:14.285Z,65.57
2023-12-16T07:29:42.854Z,67.50
2023-12-16T07:32:11.016Z,67.77
2023-12-16T07:34:39.061Z,67.67
2023-12-16T07:37:08.407Z,65.03
2023-12-16T07:39:36.340Z,68.30
2023-12-16T07:42:04.476Z,67.23
2023-12-16T07:44:32.420Z,64.73
2023-12-16T07:47:00.343Z,67.27
2023-12-16T07:49:28.381Z,65.97
2023-12-16T07:51:58.674Z,63.70
2023-12-16T07:54:29.046Z,58.30
2023-12-16T07:56:57.413Z,62.10
2023-12-16T07:59:25.358Z,57.93
2023-12-16T08:01:55.126Z,56.10
2023-12-16T08:04:24.552Z,55.23
2023-12-16T08:06:52.574Z,54.00
2023-12-16T08:09:20.520Z,54.03
2023-12-16T08:11:49.807Z,54.23
2023-12-16T08:14:17.771Z,52.23
2023-12-16T08:16:45.707Z,55.27
2023-12-16T08:19:13.673Z,54.90
2023-12-16T08:21:41.623Z,54.07
2023-12-16T08:24:09.686Z,50.10
2023-12-16T08:26:37.752Z,53.70
2023-12-16T08:29:07.017Z,51.53
2023-12-16T08:31:35.165Z,51.83
2023-12-16T08:34:03.807Z,51.77
2023-12-16T08:36:31.877Z,51.60
2023-12-16T08:38:59.769Z,51.27
2023-12-16T08:41:28.109Z,51.30
2023-12-16T08:43:56.043Z,48.07
2023-12-16T08:46:26.657Z,48.50
2023-12-16T08:48:57.157Z,47.20
2023-12-16T08:51:25.367Z,47.47
2023-12-16T08:53:54.361Z,46.60
2023-12-16T08:56:22.419Z,44.63
2023-12-16T08:58:50.427Z,44.70
2023-12-16T09:01:18.648Z,46.30
2023-12-16T09:03:48.528Z,45.77
2023-12-16T09:06:17.092Z,44.00
2023-12-16T09:08:45.271Z,45.17
2023-12-16T09:11:13.289Z,43.13
2023-12-16T09:13:41.249Z,43.17
2023-12-16T09:16:10.000Z,42.20
2023-12-16T09:18:38.766Z,41.43
2023-12-16T09:21:08.766Z,42.77
2023-12-16T09:23:37.866Z,43.63
2023-12-16T09:26:06.337Z,42.07
2023-12-16T09:28:34.465Z,42.27
2023-12-16T09:31:02.673Z,42.77
2023-12-16T09:33:30.790Z,41.73
2023-12-16T09:35:58.840Z,39.27
2023-12-16T09:38:28.299Z,38.60
2023-12-16T09:40:57.278Z,39.33
2023-12-16T09:43:25.275Z,39.93
2023-12-16T09:45:53.219Z,40.57
2023-12-16T09:48:22.626Z,42.47
2023-12-16T09:50:50.658Z,43.87
2023-12-16T09:53:18.667Z,44.63
2023-12-16T09:55:49.855Z,43.93
2023-12-16T09:58:20.544Z,46.70
2023-12-16T10:00:48.950Z,46.70
2023-12-16T10:03:18.298Z,48.90
2023-12-16T10:05:46.751Z,49.67
2023-12-16T10:08:15.132Z,50.83
2023-12-16T10:10:51.163Z,52.40
2023-12-16T10:13:24.031Z,55.17
2023-12-16T10:15:51.973Z,57.40
2023-12-16T10:18:20.211Z,60.00
2023-12-16T10:20:48.594Z,57.90
2023-12-16T10:23:16.591Z,60.63
2023-12-16T10:25:44.970Z,65.10
2023-12-16T10:28:12.934Z,63.83
2023-12-16T10:30:42.286Z,62.60
2023-12-16T10:33:11.808Z,63.77
2023-12-16T10:35:39.933Z,63.63
2023-12-16T10:38:10.157Z,64.20
2023-12-16T10:40:38.734Z,66.00
2023-12-16T10:43:09.452Z,61.57
2023-12-16T10:45:37.869Z,64.47
2023-12-16T10:48:12.611Z,63.10
2023-12-16T10:50:45.029Z,60.90
2023-12-16T10:53:20.136Z,60.97
2023-12-16T10:55:58.029Z,60.27
2023-12-16T10:58:27.478Z,60.10
2023-12-16T11:01:02.882Z,60.10
2023-12-16T11:03:38.635Z,61.87
2023-12-16T11:06:10.232Z,62.37
2023-12-16T11:08:38.885Z,60.60
2023-12-16T11:11:08.102Z,61.87
2023-12-16T11:13:37.337Z,64.43
2023-12-16T11:16:12.388Z,65.30
2023-12-16T11:18:44.553Z,66.03
2023-12-16T11:21:15.617Z,65.00
2023-12-16T11:23:46.694Z,67.10
2023-12-16T11:26:14.758Z,69.93
2023-12-16T11:28:43.400Z,69.40
2023-12-16T11:31:11.766Z,69.87
2023-12-16T11:33:48.313Z,69.70
2023-12-16T11:36:16.501Z,68.53
2023-12-16T11:38:47.671Z,68.33
2023-12-16T11:41:43.151Z,69.17
2023-12-16T11:44:12.648Z,72.67
2023-12-16T11:46:43.156Z,72.30
2023-12-16T11:49:15.946Z,70.40
2023-12-16T11:51:45.313Z,72.43
2023-12-16T11:54:13.883Z,72.23
2023-12-16T11:56:42.881Z,73.10
2023-12-16T11:59:10.923Z,76.77
2023-12-16T12:01:39.112Z,79.90
2023-12-16T12:04:08.678Z,80.47
2023-12-16T12:06:38.529Z,83.97
2023-12-16T12:09:07.167Z,79.00
2023-12-16T12:11:35.164Z,76.93
2023-12-16T12:14:03.588Z,79.80
2023-12-16T12:16:32.236Z,76.63
2023-12-16T12:19:00.348Z,76.23
2023-12-16T12:21:29.073Z,78.43
2023-12-16T12:23:58.662Z,79.80
2023-12-16T12:26:27.029Z,81.30
2023-12-16T12:28:59.953Z,77.00
2023-12-16T12:31:28.665Z,75.00
2023-12-16T12:33:56.887Z,78.30
2023-12-16T12:36:25.821Z,77.20
2023-12-16T12:38:54.721Z,75.07
2023-12-16T12:41:24.064Z,76.70
2023-12-16T12:43:51.972Z,76.30
2023-12-16T12:46:20.165Z,78.37
2023-12-16T12:48:56.760Z,75.43
2023-12-16T12:51:26.877Z,77.27
2023-12-16T12:54:00.197Z,79.37
2023-12-16T12:56:31.701Z,80.17
2023-12-16T12:59:00.741Z,80.10
2023-12-16T13:01:28.797Z,78.80
2023-12-16T13:03:56.786Z,77.63
2023-12-16T13:06:24.848Z,77.37
2023-12-16T13:08:53.678Z,77.77
2023-12-16T13:11:21.638Z,78.07
2023-12-16T13:13:50.876Z,77.97
2023-12-16T13:16:18.951Z,79.40
2023-12-16T13:18:53.745Z,80.07
2023-12-16T13:21:22.575Z,78.57
2023-12-16T13:23:51.407Z,79.80
2023-12-16T13:26:19.629Z,76.07
2023-12-16T13:28:47.721Z,76.40
2023-12-16T13:31:17.193Z,78.67
2023-12-16T13:33:45.374Z,79.47
2023-12-16T13:36:33.279Z,78.50
2023-12-16T13:39:01.596Z,77.30
2023-12-16T13:41:29.664Z,75.67
2023-12-16T13:43:57.619Z,76.53
2023-12-16T13:46:27.125Z,78.67
2023-12-16T13:48:55.163Z,77.47
2023-12-16T13:51:23.220Z,74.80
2023-12-16T13:53:51.853Z,77.53
2023-12-16T13:56:19.956Z,80.23
2023-12-16T13:58:47.892Z,80.00
2023-12-16T14:01:16.101Z,79.10
2023-12-16T14:03:45.796Z,76.70
2023-12-16T14:06:14.088Z,79.70
2023-12-16T14:08:42.165Z,82.27
2023-12-16T14:11:10.123Z,82.63
2023-12-16T14:13:38.284Z,80.17
2023-12-16T14:16:07.136Z,79.47
2023-12-16T14:18:35.199Z,79.77
2023-12-16T14:21:04.999Z,79.63
2023-12-16T14:23:32.937Z,81.00
2023-12-16T14:26:00.872Z,79.97
2023-12-16T14:28:29.762Z,83.67
2023-12-16T14:30:57.925Z,83.20
2023-12-16T14:33:26.313Z,79.40
2023-12-16T14:35:54.294Z,80.13
2023-12-16T14:38:24.404Z,81.77
2023-12-16T14:40:52.382Z,84.20
2023-12-16T14:43:20.281Z,80.90
2023-12-16T14:45:48.212Z,82.60
2023-12-16T14:48:16.555Z,81.60
2023-12-16T14:50:44.697Z,82.77
2023-12-16T14:53:12.842Z,84.67
2023-12-16T14:55:42.096Z,83.40
2023-12-16T14:58:10.010Z,80.57
2023-12-16T15:00:38.462Z,78.60
2023-12-16T15:03:10.046Z,79.27
2023-12-16T15:05:38.161Z,80.13
2023-12-16T15:08:06.880Z,74.90
2023-12-16T15:10:34.793Z,76.00
2023-12-16T15:13:08.449Z,76.67
2023-12-16T15:15:36.746Z,81.00
2023-12-16T15:18:04.898Z,79.70
2023-12-16T15:20:32.890Z,80.23
2023-12-16T15:23:01.236Z,81.67
2023-12-16T15:25:29.154Z,84.67
2023-12-16T15:27:57.060Z,83.23
2023-12-16T15:30:26.458Z,84.80
2023-12-16T15:32:54.494Z,82.07
2023-12-16T15:35:23.283Z,84.37
2023-12-16T15:37:51.206Z,80.20
2023-12-16T15:40:19.292Z,77.03
2023-12-16T15:42:47.230Z,80.67
2023-12-16T15:45:16.057Z,72.97
2023-12-16T15:47:45.729Z,70.20
2023-12-16T15:50:13.932Z,73.40
2023-12-16T15:52:42.025Z,66.13
2023-12-16T15:55:10.880Z,61.13
2023-12-16T15:57:41.942Z,65.67
2023-12-16T16:00:12.777Z,73.10
2023-12-16T16:02:40.851Z,75.70
2023-12-16T16:05:10.814Z,74.30
2023-12-16T16:07:38.981Z,75.47
2023-12-16T16:10:08.266Z,68.30
2023-12-16T16:12:36.180Z,68.63
2023-12-16T16:15:05.177Z,64.00
2023-12-16T16:17:45.984Z,60.47
2023-12-16T16:20:15.747Z,57.47
2023-12-16T16:22:43.809Z,59.13
2023-12-16T16:25:12.855Z,61.40
2023-12-16T16:27:41.138Z,63.90
2023-12-16T16:30:10.620Z,68.17
2023-12-16T16:32:39.003Z,66.57
2023-12-16T16:35:08.981Z,64.63
2023-12-16T16:37:38.543Z,62.50
2023-12-16T16:40:07.355Z,62.73
2023-12-16T16:42:35.294Z,61.37
2023-12-16T16:45:03.229Z,58.73
2023-12-16T16:47:31.301Z,58.23
2023-12-16T16:49:59.964Z,59.73
2023-12-16T16:52:27.975Z,61.00
2023-12-16T16:54:57.245Z,60.50
2023-12-16T16:57:27.258Z,59.70
2023-12-16T16:59:55.420Z,61.97
2023-12-16T17:02:23.369Z,60.23
2023-12-16T17:04:51.964Z,60.73
2023-12-16T17:07:20.133Z,59.43
2023-12-16T17:09:48.036Z,65.83
2023-12-16T17:12:18.117Z,62.43
2023-12-16T17:14:46.171Z,60.27
2023-12-16T17:17:14.174Z,58.73
2023-12-16T17:19:43.068Z,59.47
2023-12-16T17:22:13.665Z,61.00
2023-12-16T17:24:42.139Z,60.67
2023-12-16T17:27:11.552Z,59.80
2023-12-16T17:29:40.945Z,62.83
2023-12-16T17:32:08.902Z,68.00
2023-12-16T17:34:38.297Z,62.20
2023-12-16T17:37:06.443Z,62.10
2023-12-16T17:39:34.398Z,66.30
2023-12-16T17:42:02.644Z,62.93
2023-12-16T17:44:30.590Z,61.97
2023-12-16T17:47:00.037Z,60.10
2023-12-16T17:49:28.015Z,58.80
2023-12-16T17:51:56.536Z,60.27
2023-12-16T17:54:24.569Z,59.90
2023-12-16T17:56:52.546Z,57.27
2023-12-16T17:59:20.520Z,58.23
2023-12-16T18:01:49.757Z,56.23
2023-12-16T18:04:19.197Z,57.27
2023-12-16T18:06:52.619Z,56.87
2023-12-16T18:09:21.248Z,58.10
2023-12-16T18:11:49.742Z,55.03
2023-12-16T18:14:18.966Z,57.23
2023-12-16T18:16:48.100Z,55.37
2023-12-16T18:19:16.238Z,55.37
2023-12-16T18:21:45.707Z,54.20
2023-12-16T18:24:13.737Z,53.60
2023-12-16T18:26:41.750Z,56.60
2023-12-16T18:29:09.671Z,54.70
2023-12-16T18:31:37.793Z,57.83
2023-12-16T18:34:07.620Z,55.17
2023-12-16T18:36:35.971Z,56.47
2023-12-16T18:39:05.620Z,58.67
2023-12-16T18:41:33.863Z,57.17
2023-12-16T18:44:01.835Z,61.07
2023-12-16T18:46:33.078Z,58.63
2023-12-16T18:49:01.130Z,57.80
2023-12-16T18:51:29.471Z,58.90
2023-12-16T18:53:58.245Z,57.90
2023-12-16T18:56:27.673Z,57.60
2023-12-16T18:58:55.820Z,60.00
2023-12-16T19:01:23.969Z,57.47
2023-12-16T19:03:52.072Z,57.07
2023-12-16T19:06:20.185Z,57.53
2023-12-16T19:08:48.258Z,57.90
2023-12-16T19:11:16.275Z,60.40
2023-12-16T19:13:45.529Z,59.97
2023-12-16T19:16:13.481Z,58.03
2023-12-16T19:18:42.047Z,60.57
2023-12-16T19:21:10.110Z,65.00
2023-12-16T19:23:38.076Z,61.37
2023-12-16T19:26:06.265Z,61.77
2023-12-16T19:28:34.909Z,60.23
2023-12-16T19:31:04.718Z,58.87
2023-12-16T19:33:37.662Z,60.80
2023-12-16T19:36:07.227Z,60.70
2023-12-16T19:38:35.451Z,58.30
2023-12-16T19:41:04.865Z,61.10
2023-12-16T19:43:33.002Z,61.83
2023-12-16T19:46:03.909Z,58.07
2023-12-16T19:48:33.371Z,59.97
2023-12-16T19:51:03.809Z,59.90
2023-12-16T19:53:32.913Z,60.50
2023-12-16T19:56:00.850Z,59.60
2023-12-16T19:58:28.744Z,65.20
2023-12-16T20:00:56.726Z,67.73
2023-12-16T20:03:24.856Z,66.23
2023-12-16T20:05:54.485Z,62.77
2023-12-16T20:08:23.057Z,63.50
2023-12-16T20:10:51.043Z,65.83
2023-12-16T20:13:18.962Z,59.87
2023-12-16T20:15:46.878Z,61.80
2023-12-16T20:18:15.540Z,60.03
2023-12-16T20:20:43.816Z,60.90
2023-12-16T20:23:14.337Z,61.53
2023-12-16T20:25:42.548Z,59.30
2023-12-16T20:28:10.712Z,60.07
2023-12-16T20:30:38.851Z,57.80
2023-12-16T20:33:06.960Z,59.33
2023-12-16T20:35:34.954Z,59.93
2023-12-16T20:38:05.468Z,60.40
2023-12-16T20:40:36.532Z,60.73
2023-12-16T20:43:06.301Z,61.33
2023-12-16T20:45:34.369Z,61.53
2023-12-16T20:48:03.291Z,60.90
2023-12-16T20:50:31.617Z,59.60
2023-12-16T20:53:00.384Z,63.30
2023-12-16T20:55:30.600Z,59.93
2023-12-16T20:57:59.905Z,64.27
2023-12-16T21:00:27.949Z,63.20
2023-12-16T21:02:55.987Z,67.65
2023-12-16T21:05:24.600Z,65.53
2023-12-16T21:07:52.746Z,65.40
2023-12-16T21:10:20.826Z,63.40
2023-12-16T21:12:49.119Z,61.10
2023-12-16T21:15:18.485Z,60.37
2023-12-16T21:17:47.022Z,61.80
2023-12-16T21:20:15.183Z,60.90
2023-12-16T21:22:43.126Z,59.33
2023-12-16T21:25:11.106Z,61.57
2023-12-16T21:27:39.262Z,58.97
2023-12-16T21:30:11.437Z,58.77
2023-12-16T21:32:41.396Z,59.10
2023-12-16T21:35:10.032Z,61.20
2023-12-16T21:37:38.224Z,59.90
2023-12-16T21:40:09.516Z,62.10
2023-12-16T21:42:37.704Z,62.77
2023-12-16T21:45:06.465Z,60.90
2023-12-16T21:47:34.506Z,64.23
2023-12-16T21:50:04.865Z,66.23
2023-12-16T21:52:33.021Z,65.60
2023-12-16T21:55:00.968Z,63.77
2023-12-16T21:57:30.526Z,60.50
2023-12-16T21:59:58.626Z,60.67
2023-12-16T22:02:26.681Z,60.33
2023-12-16T22:04:54.780Z,59.90
2023-12-16T22:07:24.053Z,62.13
2023-12-16T22:09:52.052Z,63.50
2023-12-16T22:12:20.092Z,63.73
2023-12-16T22:14:48.393Z,60.67
2023-12-16T22:17:17.453Z,60.33
2023-12-16T22:19:56.973Z,61.53
2023-12-16T22:22:27.337Z,61.27
2023-12-16T22:24:55.769Z,63.60
2023-12-16T22:27:23.865Z,63.67
2023-12-16T22:29:52.987Z,61.70
2023-12-16T22:32:20.966Z,61.73
2023-12-16T22:34:49.185Z,62.13
2023-12-16T22:37:18.007Z,59.53
2023-12-16T22:39:47.313Z,59.47
2023-12-16T22:42:18.070Z,60.60
2023-12-16T22:44:47.717Z,58.30
2023-12-16T22:47:15.805Z,58.93
2023-12-16T22:49:44.047Z,62.23
2023-12-16T22:52:12.181Z,61.03
2023-12-16T22:54:40.119Z,59.20
2023-12-16T22:57:09.425Z,60.60
2023-12-16T22:59:37.439Z,63.80
2023-12-16T23:02:05.711Z,60.30
2023-12-16T23:04:33.644Z,59.93
2023-12-16T23:07:01.577Z,59.40
2023-12-16T23:09:29.769Z,61.70
2023-12-16T23:11:58.027Z,60.60
2023-12-16T23:14:27.309Z,62.10
2023-12-16T23:16:55.229Z,63.80
2023-12-16T23:19:23.913Z,62.60
2023-12-16T23:21:52.578Z,67.17
2023-12-16T23:24:20.625Z,64.13
2023-12-16T23:26:48.624Z,66.10
2023-12-16T23:29:16.592Z,66.30
2023-12-16T23:31:45.910Z,63.57
2023-12-16T23:34:14.031Z,62.53
2023-12-16T23:36:42.021Z,63.03
2023-12-16T23:39:09.972Z,63.30
2023-12-16T23:41:38.043Z,63.80
2023-12-16T23:44:06.520Z,63.87
2023-12-16T23:46:34.420Z,62.27
2023-12-16T23:49:03.878Z,60.20
2023-12-16T23:51:31.922Z,64.30
2023-12-16T23:54:00.000Z,60.70
2023-12-16T23:56:27.935Z,60.80
2023-12-16T23:58:55.842Z,60.17
